createdAt,value
2017-09-22T00:00:08.258Z,72.6
2017-09-22T00:01:09.861Z,70.5
2017-09-22T00:02:11.419Z,69.7
2017-09-22T00:03:13.085Z,70.6
2017-09-22T00:04:14.613Z,70.3
2017-09-22T00:05:16.204Z,70.3
2017-09-22T00:06:17.776Z,70.1
2017-09-22T00:07:19.486Z,70.5
2017-09-22T00:08:21.049Z,70.3
2017-09-22T00:09:22.725Z,70.2
2017-09-22T00:10:24.324Z,68.9
2017-09-22T00:11:25.923Z,67.8
2017-09-22T00:12:27.447Z,68.7
2017-09-22T00:13:29.050Z,68.6
2017-09-22T00:14:30.561Z,68.6
2017-09-22T00:15:32.158Z,69.8
2017-09-22T00:16:33.699Z,70.4
2017-09-22T00:17:35.387Z,70.9
2017-09-22T00:18:36.963Z,72.7
2017-09-22T00:19:38.519Z,72.9
2017-09-22T00:20:40.106Z,71.3
2017-09-22T00:21:41.729Z,69.0
2017-09-22T00:22:43.263Z,69.3
2017-09-22T00:23:44.917Z,68.5
2017-09-22T00:24:46.498Z,68.5
2017-09-22T00:25:48.050Z,68.4
2017-09-22T00:26:49.632Z,67.6
2017-09-22T00:27:51.325Z,67.4
2017-09-22T00:28:52.824Z,68.0
2017-09-22T00:29:54.455Z,69.5
2017-09-22T00:30:56.029Z,70.0
2017-09-22T00:31:57.638Z,71.8
2017-09-22T00:32:59.180Z,72.7
2017-09-22T00:34:00.712Z,74.0
2017-09-22T00:35:02.254Z,75.2
2017-09-22T00:36:03.811Z,75.1
2017-09-22T00:37:05.403Z,74.6
2017-09-22T00:38:07.066Z,76.8
2017-09-22T00:39:08.554Z,76.9
2017-09-22T00:40:10.153Z,77.0
2017-09-22T00:41:11.650Z,77.7
2017-09-22T00:42:13.170Z,77.7
2017-09-22T00:43:14.688Z,78.3
2017-09-22T00:44:17.257Z,79.0
2017-09-22T00:45:18.835Z,79.0
2017-09-22T00:46:20.525Z,79.8
2017-09-22T00:47:21.984Z,78.9
2017-09-22T00:48:23.586Z,79.1
2017-09-22T00:49:25.108Z,79.5
2017-09-22T00:50:26.619Z,80.3
2017-09-22T00:51:28.177Z,80.0
2017-09-22T00:52:29.836Z,80.6
2017-09-22T00:53:31.339Z,81.0
2017-09-22T00:54:32.966Z,80.9
2017-09-22T00:55:34.481Z,81.3
2017-09-22T00:56:36.124Z,81.6
2017-09-22T00:57:37.722Z,81.9
2017-09-22T00:58:39.257Z,81.7
2017-09-22T00:59:40.734Z,82.6
2017-09-22T01:00:42.387Z,82.7
2017-09-22T01:01:43.851Z,82.9
2017-09-22T01:02:45.420Z,83.2
2017-09-22T01:03:46.946Z,83.1
2017-09-22T01:04:48.498Z,83.3
2017-09-22T01:05:50.043Z,84.1
2017-09-22T01:06:51.574Z,84.5
2017-09-22T01:07:53.085Z,85.3
2017-09-22T01:08:54.664Z,85.1
2017-09-22T01:09:56.167Z,84.5
2017-09-22T01:10:57.765Z,84.4
2017-09-22T01:11:59.312Z,84.7
2017-09-22T01:13:00.820Z,84.8
2017-09-22T01:14:02.363Z,84.9
2017-09-22T01:15:03.971Z,85.4
2017-09-22T01:16:05.475Z,85.4
2017-09-22T01:17:07.048Z,85.4
2017-09-22T01:18:08.606Z,85.2
2017-09-22T01:19:10.189Z,85.9
2017-09-22T01:20:11.693Z,85.5
2017-09-22T01:21:13.300Z,85.9
2017-09-22T01:22:14.808Z,86.7
2017-09-22T01:23:16.366Z,85.5
2017-09-22T01:24:17.873Z,85.5
2017-09-22T01:25:19.471Z,85.2
2017-09-22T01:26:20.995Z,87.6
2017-09-22T01:27:22.576Z,87.5
2017-09-22T01:28:24.087Z,87.1
2017-09-22T01:29:25.658Z,87.8
2017-09-22T01:30:27.174Z,88.1
2017-09-22T01:31:28.724Z,88.8
2017-09-22T01:32:30.277Z,87.9
2017-09-22T01:33:33.904Z,88.8
2017-09-22T01:34:35.465Z,88.6
2017-09-22T01:35:37.081Z,88.3
2017-09-22T01:36:38.631Z,88.9
2017-09-22T01:37:40.278Z,88.0
2017-09-22T01:38:41.756Z,88.5
2017-09-22T01:39:43.351Z,88.8
2017-09-22T01:40:44.831Z,89.1
2017-09-22T01:41:48.456Z,88.7
2017-09-22T01:42:50.007Z,89.2
2017-09-22T01:43:51.653Z,89.6
2017-09-22T01:44:53.251Z,89.6
2017-09-22T01:45:54.851Z,89.2
2017-09-22T01:46:56.363Z,89.4
2017-09-22T01:47:57.989Z,89.7
2017-09-22T01:48:59.482Z,90.1
2017-09-22T01:50:01.086Z,89.4
2017-09-22T01:51:02.572Z,89.7
2017-09-22T01:52:04.178Z,88.8
2017-09-22T01:53:05.749Z,89.5
2017-09-22T01:54:07.381Z,90.1
2017-09-22T01:55:08.878Z,90.6
2017-09-22T01:56:10.438Z,91.4
2017-09-22T01:57:11.946Z,91.0
2017-09-22T01:58:13.644Z,89.9
2017-09-22T01:59:15.196Z,89.8
2017-09-22T02:00:16.799Z,89.6
2017-09-22T02:01:18.280Z,90.5
2017-09-22T02:02:19.817Z,90.4
2017-09-22T02:03:21.349Z,89.9
2017-09-22T02:04:23.014Z,89.5
2017-09-22T02:05:24.628Z,90.4
2017-09-22T02:06:26.176Z,89.9
2017-09-22T02:07:27.666Z,90.3
2017-09-22T02:08:29.316Z,90.7
2017-09-22T02:09:30.815Z,91.4
2017-09-22T02:10:32.369Z,91.1
2017-09-22T02:11:33.946Z,90.3
2017-09-22T02:12:35.533Z,91.7
2017-09-22T02:13:37.054Z,92.1
2017-09-22T02:14:38.627Z,91.7
2017-09-22T02:15:40.135Z,90.8
2017-09-22T02:16:41.722Z,91.8
2017-09-22T02:17:43.265Z,91.7
2017-09-22T02:18:44.805Z,92.9
2017-09-22T02:19:46.413Z,92.6
2017-09-22T02:20:48.033Z,93.2
2017-09-22T02:21:49.600Z,93.3
2017-09-22T02:22:51.219Z,93.4
2017-09-22T02:23:52.835Z,92.2
2017-09-22T02:24:54.469Z,92.0
2017-09-22T02:25:56.106Z,93.5
2017-09-22T02:26:57.673Z,93.0
2017-09-22T02:27:59.219Z,93.2
2017-09-22T02:29:00.987Z,92.3
2017-09-22T02:30:02.503Z,92.6
2017-09-22T02:31:04.711Z,93.4
2017-09-22T02:32:06.257Z,92.6
2017-09-22T02:33:07.823Z,93.0
2017-09-22T02:34:09.377Z,93.2
2017-09-22T02:35:10.982Z,93.2
2017-09-22T02:36:12.550Z,93.3
2017-09-22T02:37:14.117Z,94.3
2017-09-22T02:38:15.645Z,95.6
2017-09-22T02:39:17.226Z,94.9
2017-09-22T02:40:18.754Z,94.7
2017-09-22T02:41:20.515Z,94.8
2017-09-22T02:42:22.028Z,93.7
2017-09-22T02:43:23.644Z,94.0
2017-09-22T02:44:25.172Z,93.7
2017-09-22T02:45:26.751Z,94.3
2017-09-22T02:46:28.256Z,94.2
2017-09-22T02:47:29.836Z,94.8
2017-09-22T02:48:31.321Z,94.9
2017-09-22T02:49:32.897Z,94.1
2017-09-22T02:50:34.439Z,94.2
2017-09-22T02:51:36.014Z,94.8
2017-09-22T02:52:37.727Z,96.2
2017-09-22T02:53:39.388Z,96.6
2017-09-22T02:54:40.940Z,95.6
2017-09-22T02:55:42.560Z,95.2
2017-09-22T02:56:44.074Z,94.4
2017-09-22T02:57:45.665Z,94.9
2017-09-22T02:58:47.170Z,94.9
2017-09-22T02:59:50.799Z,94.6
2017-09-22T03:00:52.260Z,94.7
2017-09-22T03:01:54.837Z,94.4
2017-09-22T03:02:56.351Z,95.0
2017-09-22T03:03:57.894Z,95.3
2017-09-22T03:04:59.421Z,97.0
2017-09-22T03:06:00.968Z,96.2
2017-09-22T03:07:02.508Z,95.7
2017-09-22T03:08:04.078Z,95.4
2017-09-22T03:09:05.636Z,94.6
2017-09-22T03:10:07.189Z,94.8
2017-09-22T03:11:08.704Z,95.0
2017-09-22T03:12:10.282Z,96.1
2017-09-22T03:13:11.808Z,96.8
2017-09-22T03:14:13.468Z,95.2
2017-09-22T03:15:15.088Z,96.4
2017-09-22T03:16:16.700Z,96.4
2017-09-22T03:17:18.170Z,95.7
2017-09-22T03:18:19.860Z,94.0
2017-09-22T03:19:21.374Z,94.7
2017-09-22T03:20:22.995Z,95.9
2017-09-22T03:21:24.598Z,96.6
2017-09-22T03:22:26.133Z,97.0
2017-09-22T03:23:27.618Z,97.9
2017-09-22T03:24:29.166Z,98.0
2017-09-22T03:25:30.674Z,97.8
2017-09-22T03:26:32.344Z,96.8
2017-09-22T03:27:33.831Z,96.0
2017-09-22T03:28:35.440Z,97.0
2017-09-22T03:29:36.918Z,97.3
2017-09-22T03:30:38.472Z,96.6
2017-09-22T03:31:39.957Z,96.1
2017-09-22T03:32:41.434Z,94.3
2017-09-22T03:33:42.925Z,94.5
2017-09-22T03:34:44.451Z,94.2
2017-09-22T03:35:45.918Z,97.0
2017-09-22T03:36:47.505Z,98.0
2017-09-22T03:37:48.994Z,97.9
2017-09-22T03:38:50.592Z,97.4
2017-09-22T03:39:52.065Z,98.6
2017-09-22T03:40:53.607Z,98.0
2017-09-22T03:41:55.076Z,96.6
2017-09-22T03:42:56.599Z,96.3
2017-09-22T03:43:58.121Z,97.4
2017-09-22T03:44:59.668Z,96.0
2017-09-22T03:46:01.111Z,96.8
2017-09-22T03:47:02.651Z,97.0
2017-09-22T03:48:04.117Z,96.7
2017-09-22T03:49:05.633Z,95.9
2017-09-22T03:50:07.127Z,95.3
2017-09-22T03:51:08.636Z,96.8
2017-09-22T03:52:10.120Z,97.2
2017-09-22T03:53:11.725Z,98.6
2017-09-22T03:54:13.194Z,97.9
2017-09-22T03:55:14.799Z,98.1
2017-09-22T03:56:16.277Z,99.1
2017-09-22T03:57:17.747Z,98.8
2017-09-22T03:58:19.319Z,98.6
2017-09-22T03:59:20.886Z,97.6
2017-09-22T04:00:22.435Z,97.5
2017-09-22T04:01:23.930Z,97.0
2017-09-22T04:02:25.504Z,95.7
2017-09-22T04:03:26.989Z,97.3
2017-09-22T04:04:28.465Z,97.4
2017-09-22T04:05:29.964Z,97.6
2017-09-22T04:06:31.553Z,98.3
2017-09-22T04:07:33.009Z,99.2
2017-09-22T04:08:34.541Z,97.6
2017-09-22T04:09:35.984Z,97.4
2017-09-22T04:10:37.552Z,97.0
2017-09-22T04:11:39.118Z,96.9
2017-09-22T04:12:40.736Z,97.8
2017-09-22T04:13:42.250Z,98.4
2017-09-22T04:14:43.864Z,97.8
2017-09-22T04:15:45.396Z,97.4
2017-09-22T04:16:46.999Z,99.1
2017-09-22T04:17:48.529Z,99.8
2017-09-22T04:18:50.076Z,99.6
2017-09-22T04:19:51.570Z,99.6
2017-09-22T04:20:53.226Z,99.9
2017-09-22T04:21:54.745Z,100.0
2017-09-22T04:22:56.401Z,100.0
2017-09-22T04:23:57.852Z,99.7
2017-09-22T04:24:59.466Z,100.0
2017-09-22T04:26:00.966Z,99.9
2017-09-22T04:27:02.539Z,99.8
2017-09-22T04:28:04.096Z,99.5
2017-09-22T04:29:05.630Z,98.4
2017-09-22T04:30:07.139Z,99.2
2017-09-22T04:31:08.701Z,98.8
2017-09-22T04:32:10.200Z,98.5
2017-09-22T04:33:11.777Z,98.4
2017-09-22T04:34:13.296Z,99.3
2017-09-22T04:35:14.860Z,99.2
2017-09-22T04:36:16.332Z,98.9
2017-09-22T04:37:17.954Z,99.2
2017-09-22T04:38:19.470Z,100.0
2017-09-22T04:39:21.071Z,99.9
2017-09-22T04:40:22.590Z,99.6
2017-09-22T04:41:24.165Z,99.7
2017-09-22T04:42:25.731Z,99.1
2017-09-22T04:43:27.276Z,99.2
2017-09-22T04:44:28.821Z,98.7
2017-09-22T04:45:30.386Z,97.3
2017-09-22T04:46:31.912Z,98.1
2017-09-22T04:47:33.482Z,98.1
2017-09-22T04:48:35.014Z,99.1
2017-09-22T04:49:36.607Z,99.3
2017-09-22T04:50:38.073Z,99.9
2017-09-22T04:51:39.679Z,98.7
2017-09-22T04:52:41.214Z,98.5
2017-09-22T04:53:42.832Z,97.8
2017-09-22T04:54:44.334Z,99.4
2017-09-22T04:55:45.989Z,98.3
2017-09-22T04:56:47.514Z,98.5
2017-09-22T04:57:49.214Z,98.7
2017-09-22T04:58:50.849Z,99.5
2017-09-22T04:59:52.463Z,99.5
2017-09-22T05:00:53.971Z,99.6
2017-09-22T05:01:56.605Z,99.7
2017-09-22T05:02:58.125Z,98.8
2017-09-22T05:03:59.770Z,98.5
2017-09-22T05:05:01.270Z,98.7
2017-09-22T05:06:02.870Z,98.7
2017-09-22T05:07:04.369Z,98.5
2017-09-22T05:08:05.988Z,99.2
2017-09-22T05:09:07.581Z,99.6
2017-09-22T05:10:09.122Z,99.4
2017-09-22T05:11:10.626Z,100.0
2017-09-22T05:12:12.225Z,99.7
2017-09-22T05:13:13.797Z,99.1
2017-09-22T05:14:15.391Z,98.9
2017-09-22T05:15:16.938Z,98.7
2017-09-22T05:16:18.477Z,98.5
2017-09-22T05:17:20.035Z,99.1
2017-09-22T05:18:21.577Z,99.2
2017-09-22T05:19:23.089Z,98.7
2017-09-22T05:20:24.698Z,98.2
2017-09-22T05:21:26.322Z,97.8
2017-09-22T05:22:28.896Z,97.5
2017-09-22T05:23:30.402Z,96.9
2017-09-22T05:24:31.973Z,96.0
2017-09-22T05:25:33.460Z,96.1
2017-09-22T05:26:35.087Z,96.0
2017-09-22T05:27:36.675Z,95.8
2017-09-22T05:28:38.324Z,96.1
2017-09-22T05:29:39.866Z,96.3
2017-09-22T05:30:41.480Z,96.4
2017-09-22T05:31:42.982Z,96.6
2017-09-22T05:32:44.673Z,96.1
2017-09-22T05:33:46.246Z,96.1
2017-09-22T05:34:47.964Z,98.0
2017-09-22T05:35:49.534Z,98.7
2017-09-22T05:36:52.181Z,98.5
2017-09-22T05:37:53.813Z,97.7
2017-09-22T05:38:55.423Z,98.7
2017-09-22T05:39:56.964Z,98.2
2017-09-22T05:40:58.526Z,99.1
2017-09-22T05:42:00.113Z,99.5
2017-09-22T05:43:01.710Z,99.1
2017-09-22T05:44:03.222Z,98.8
2017-09-22T05:45:04.939Z,98.9
2017-09-22T05:46:06.560Z,98.7
2017-09-22T05:47:08.195Z,98.5
2017-09-22T05:48:09.745Z,98.0
2017-09-22T05:49:11.373Z,97.0
2017-09-22T05:50:12.927Z,97.8
2017-09-22T05:51:14.580Z,97.1
2017-09-22T05:52:16.339Z,97.4
2017-09-22T05:53:18.222Z,97.2
2017-09-22T05:54:19.786Z,96.7
2017-09-22T05:55:22.453Z,97.2
2017-09-22T05:56:23.996Z,98.7
2017-09-22T05:57:25.689Z,100.0
2017-09-22T05:58:27.180Z,100.0
2017-09-22T05:59:28.849Z,99.6
2017-09-22T06:00:30.413Z,99.5
2017-09-22T06:01:31.951Z,98.4
2017-09-22T06:02:33.572Z,98.8
2017-09-22T06:03:35.298Z,99.2
2017-09-22T06:04:36.768Z,98.7
2017-09-22T06:05:38.475Z,98.1
2017-09-22T06:06:39.988Z,97.2
2017-09-22T06:07:41.522Z,97.0
2017-09-22T06:08:42.994Z,97.1
2017-09-22T06:09:44.638Z,98.7
2017-09-22T06:10:46.135Z,99.2
2017-09-22T06:11:47.740Z,99.2
2017-09-22T06:12:49.594Z,100.0
2017-09-22T06:13:51.263Z,100.0
2017-09-22T06:14:52.799Z,100.0
2017-09-22T06:15:54.482Z,99.6
2017-09-22T06:16:56.162Z,99.8
2017-09-22T06:17:57.753Z,98.4
2017-09-22T06:18:59.343Z,98.5
2017-09-22T06:20:00.845Z,98.7
2017-09-22T06:21:02.423Z,98.4
2017-09-22T06:22:04.046Z,98.4
2017-09-22T06:23:05.607Z,98.9
2017-09-22T06:24:07.715Z,98.6
2017-09-22T06:25:09.284Z,98.4
2017-09-22T06:26:10.871Z,97.5
2017-09-22T06:27:12.395Z,97.1
2017-09-22T06:28:14.069Z,97.6
2017-09-22T06:29:15.592Z,98.4
2017-09-22T06:30:17.230Z,98.7
2017-09-22T06:31:18.790Z,99.9
2017-09-22T06:32:20.660Z,100.0
2017-09-22T06:33:22.219Z,100.0
2017-09-22T06:34:23.901Z,100.0
2017-09-22T06:35:25.966Z,100.0
2017-09-22T06:36:27.584Z,100.0
2017-09-22T06:37:29.301Z,99.9
2017-09-22T06:38:30.918Z,99.1
2017-09-22T06:39:32.454Z,99.6
2017-09-22T06:40:34.107Z,98.6
2017-09-22T06:41:35.644Z,98.6
2017-09-22T06:42:37.363Z,98.0
2017-09-22T06:43:38.875Z,97.8
2017-09-22T06:44:40.522Z,97.9
2017-09-22T06:45:42.093Z,96.8
2017-09-22T06:46:53.632Z,96.1
2017-09-22T06:47:55.168Z,95.5
2017-09-22T06:48:56.777Z,94.9
2017-09-22T06:49:58.350Z,94.5
2017-09-22T06:51:00.220Z,94.4
2017-09-22T06:52:01.704Z,93.4
2017-09-22T06:53:03.389Z,92.8
2017-09-22T06:54:04.939Z,92.7
2017-09-22T06:55:06.586Z,92.8
2017-09-22T06:56:08.114Z,92.7
2017-09-22T06:57:09.768Z,93.1
2017-09-22T06:58:11.402Z,93.1
2017-09-22T06:59:13.030Z,93.5
2017-09-22T07:00:14.686Z,93.0
2017-09-22T07:01:16.298Z,93.2
2017-09-22T07:02:18.083Z,93.3
2017-09-22T07:03:19.766Z,93.6
2017-09-22T07:04:21.329Z,93.5
2017-09-22T07:05:23.170Z,93.5
2017-09-22T07:06:24.871Z,92.5
2017-09-22T07:07:26.528Z,92.5
2017-09-22T07:08:28.103Z,91.8
2017-09-22T07:09:29.727Z,90.7
2017-09-22T07:10:31.382Z,89.7
2017-09-22T07:11:33.057Z,89.1
2017-09-22T07:12:34.682Z,88.8
2017-09-22T07:13:37.309Z,88.3
2017-09-22T07:14:38.938Z,87.4
2017-09-22T07:15:40.624Z,87.6
2017-09-22T07:16:42.268Z,86.7
2017-09-22T07:17:43.952Z,87.0
2017-09-22T07:18:45.497Z,86.7
2017-09-22T07:19:47.144Z,85.7
2017-09-22T07:20:48.707Z,85.4
2017-09-22T07:21:50.392Z,84.9
2017-09-22T07:22:51.944Z,85.2
2017-09-22T07:23:54.533Z,85.3
2017-09-22T07:24:56.284Z,84.8
2017-09-22T07:25:58.046Z,84.3
2017-09-22T07:26:59.553Z,84.6
2017-09-22T07:28:03.479Z,84.1
2017-09-22T07:29:04.992Z,83.7
2017-09-22T07:30:06.558Z,83.6
2017-09-22T07:31:08.019Z,83.4
2017-09-22T07:32:09.561Z,83.7
2017-09-22T07:33:11.122Z,83.3
2017-09-22T07:34:12.728Z,82.5
2017-09-22T07:35:14.293Z,83.4
2017-09-22T07:36:15.944Z,82.5
2017-09-22T07:37:17.512Z,82.5
2017-09-22T07:38:19.191Z,82.4
2017-09-22T07:39:20.746Z,82.6
2017-09-22T07:40:22.469Z,81.8
2017-09-22T07:41:24.050Z,81.6
2017-09-22T07:42:25.695Z,81.0
2017-09-22T07:43:27.435Z,81.0
2017-09-22T07:44:29.201Z,80.9
2017-09-22T07:45:30.738Z,80.3
2017-09-22T07:46:32.396Z,80.0
2017-09-22T07:47:34.027Z,78.5
2017-09-22T07:48:35.669Z,79.2
2017-09-22T07:49:37.221Z,79.4
2017-09-22T07:50:38.744Z,78.4
2017-09-22T07:51:40.423Z,77.3
2017-09-22T07:52:42.083Z,74.6
2017-09-22T07:53:43.654Z,76.6
2017-09-22T07:54:45.333Z,76.3
2017-09-22T07:55:46.939Z,74.6
2017-09-22T07:56:48.588Z,74.9
2017-09-22T07:57:50.158Z,74.9
2017-09-22T07:58:51.840Z,74.2
2017-09-22T07:59:53.501Z,74.5
2017-09-22T08:00:55.094Z,73.6
2017-09-22T08:01:56.649Z,72.9
2017-09-22T08:02:58.274Z,73.6
2017-09-22T08:03:59.809Z,72.2
2017-09-22T08:05:01.421Z,72.7
2017-09-22T08:06:02.975Z,73.3
2017-09-22T08:07:04.547Z,74.7
2017-09-22T08:08:06.134Z,74.2
2017-09-22T08:09:07.781Z,74.6
2017-09-22T08:10:09.308Z,75.0
2017-09-22T08:11:10.923Z,76.3
2017-09-22T08:12:12.434Z,74.8
2017-09-22T08:13:14.028Z,75.4
2017-09-22T08:14:15.550Z,75.1
2017-09-22T08:15:17.192Z,74.4
2017-09-22T08:16:18.831Z,74.2
2017-09-22T08:17:20.589Z,73.6
2017-09-22T08:18:22.162Z,73.2
2017-09-22T08:19:23.822Z,73.1
2017-09-22T08:20:25.323Z,72.3
2017-09-22T08:21:27.997Z,71.9
2017-09-22T08:22:29.594Z,72.1
2017-09-22T08:23:31.196Z,72.9
2017-09-22T08:24:32.802Z,73.2
2017-09-22T08:25:34.495Z,73.4
2017-09-22T08:26:36.006Z,72.9
2017-09-22T08:27:37.680Z,72.0
2017-09-22T08:28:39.297Z,72.6
2017-09-22T08:29:40.885Z,72.2
2017-09-22T08:30:42.455Z,72.2
2017-09-22T08:31:44.144Z,72.3
2017-09-22T08:32:45.684Z,71.9
2017-09-22T08:33:47.350Z,72.6
2017-09-22T08:34:48.874Z,72.6
2017-09-22T08:35:50.523Z,72.4
2017-09-22T08:36:52.038Z,71.6
2017-09-22T08:37:53.638Z,71.1
2017-09-22T08:38:55.177Z,71.5
2017-09-22T08:39:56.771Z,70.6
2017-09-22T08:40:58.323Z,72.7
2017-09-22T08:42:01.349Z,73.6
2017-09-22T08:43:02.862Z,73.8
2017-09-22T08:44:04.598Z,72.8
2017-09-22T08:45:06.258Z,72.7
2017-09-22T08:46:07.919Z,72.6
2017-09-22T08:47:09.420Z,72.7
2017-09-22T08:48:11.093Z,73.6
2017-09-22T08:49:12.619Z,73.6
2017-09-22T08:50:14.261Z,72.8
2017-09-22T08:51:15.850Z,72.6
2017-09-22T08:52:17.515Z,73.6
2017-09-22T08:53:19.568Z,72.6
2017-09-22T08:54:21.185Z,72.1
2017-09-22T08:55:22.723Z,71.5
2017-09-22T08:56:24.264Z,70.0
2017-09-22T08:57:25.822Z,70.5
2017-09-22T08:58:27.444Z,71.0
2017-09-22T08:59:29.015Z,70.4
2017-09-22T09:00:30.560Z,70.3
2017-09-22T09:01:32.152Z,71.6
2017-09-22T09:02:33.793Z,70.9
2017-09-22T09:03:35.369Z,70.1
2017-09-22T09:04:36.898Z,69.3
2017-09-22T09:05:38.504Z,68.9
2017-09-22T09:06:40.151Z,67.5
2017-09-22T09:07:41.671Z,67.4
2017-09-22T09:08:43.389Z,67.4
2017-09-22T09:09:45.169Z,67.3
2017-09-22T09:10:46.967Z,67.8
2017-09-22T09:11:48.517Z,67.4
2017-09-22T09:12:50.188Z,67.2
2017-09-22T09:13:51.748Z,67.6
2017-09-22T09:14:53.361Z,67.7
2017-09-22T09:15:54.910Z,67.8
2017-09-22T09:16:56.409Z,67.2
2017-09-22T09:17:57.930Z,68.1
2017-09-22T09:18:59.662Z,70.4
2017-09-22T09:20:01.058Z,68.7
2017-09-22T09:21:03.715Z,68.5
2017-09-22T09:22:05.241Z,68.4
2017-09-22T09:23:06.870Z,67.8
2017-09-22T09:24:08.402Z,67.4
2017-09-22T09:25:09.980Z,67.9
2017-09-22T09:26:11.548Z,67.3
2017-09-22T09:27:13.170Z,66.2
2017-09-22T09:28:14.780Z,67.2
2017-09-22T09:29:16.466Z,66.5
2017-09-22T09:30:18.066Z,67.6
2017-09-22T09:31:19.714Z,67.2
2017-09-22T09:32:21.267Z,67.2
2017-09-22T09:33:23.058Z,66.7
2017-09-22T09:34:24.664Z,66.3
2017-09-22T09:35:26.348Z,66.3
2017-09-22T09:36:27.954Z,66.0
2017-09-22T09:37:29.681Z,66.8
2017-09-22T09:38:31.463Z,65.2
2017-09-22T09:39:33.074Z,65.7
2017-09-22T09:40:35.126Z,65.5
2017-09-22T09:41:36.863Z,65.8
2017-09-22T09:42:38.512Z,65.5
2017-09-22T09:43:40.227Z,65.7
2017-09-22T09:44:41.724Z,65.8
2017-09-22T09:45:43.509Z,65.0
2017-09-22T09:46:45.030Z,65.3
2017-09-22T09:47:46.663Z,64.9
2017-09-22T09:48:48.144Z,64.4
2017-09-22T09:49:49.782Z,65.1
2017-09-22T09:50:51.380Z,64.5
2017-09-22T09:51:53.051Z,64.3
2017-09-22T09:52:54.595Z,65.1
2017-09-22T09:53:56.186Z,64.9
2017-09-22T09:54:57.873Z,66.4
2017-09-22T09:55:59.535Z,65.9
2017-09-22T09:57:01.017Z,65.9
2017-09-22T09:58:02.742Z,65.8
2017-09-22T09:59:04.261Z,67.7
2017-09-22T10:00:05.903Z,66.5
2017-09-22T10:01:07.951Z,66.3
2017-09-22T10:02:09.645Z,66.7
2017-09-22T10:03:11.196Z,66.3
2017-09-22T10:04:12.798Z,68.1
2017-09-22T10:05:14.344Z,67.5
2017-09-22T10:06:15.908Z,68.1
2017-09-22T10:07:17.447Z,68.7
2017-09-22T10:08:19.036Z,68.2
2017-09-22T10:09:20.708Z,67.4
2017-09-22T10:10:22.283Z,66.3
2017-09-22T10:11:23.863Z,65.5
2017-09-22T10:12:25.475Z,65.6
2017-09-22T10:13:27.051Z,65.7
2017-09-22T10:14:28.660Z,65.5
2017-09-22T10:15:30.200Z,65.8
2017-09-22T10:16:31.741Z,64.9
2017-09-22T10:17:33.319Z,66.3
2017-09-22T10:18:34.938Z,66.0
2017-09-22T10:19:36.547Z,64.8
2017-09-22T10:20:38.208Z,65.6
2017-09-22T10:21:39.764Z,66.0
2017-09-22T10:22:41.294Z,65.9
2017-09-22T10:23:42.952Z,64.4
2017-09-22T10:24:44.586Z,64.2
2017-09-22T10:25:46.166Z,63.1
2017-09-22T10:26:47.819Z,63.2
2017-09-22T10:27:49.395Z,64.4
2017-09-22T10:28:51.046Z,65.5
2017-09-22T10:29:52.668Z,64.6
2017-09-22T10:30:54.279Z,62.6
2017-09-22T10:31:55.850Z,63.1
2017-09-22T10:32:57.588Z,65.2
2017-09-22T10:33:59.145Z,65.6
2017-09-22T10:35:00.737Z,65.1
2017-09-22T10:36:02.368Z,64.2
2017-09-22T10:37:03.952Z,62.7
2017-09-22T10:38:05.510Z,63.1
2017-09-22T10:39:07.261Z,63.0
2017-09-22T10:40:08.820Z,63.1
2017-09-22T10:41:10.491Z,62.5
2017-09-22T10:42:12.096Z,62.5
2017-09-22T10:43:13.718Z,62.5
2017-09-22T10:44:15.304Z,61.0
2017-09-22T10:45:16.846Z,61.6
2017-09-22T10:46:18.382Z,62.4
2017-09-22T10:47:20.005Z,62.1
2017-09-22T10:48:21.817Z,62.7
2017-09-22T10:49:23.515Z,62.0
2017-09-22T10:50:25.105Z,62.3
2017-09-22T10:51:26.715Z,60.5
2017-09-22T10:52:28.260Z,60.4
2017-09-22T10:53:29.853Z,61.9
2017-09-22T10:54:31.451Z,60.7
2017-09-22T10:55:33.090Z,60.4
2017-09-22T10:56:34.891Z,60.2
2017-09-22T10:57:36.523Z,61.4
2017-09-22T10:58:38.124Z,60.3
2017-09-22T10:59:40.016Z,60.1
2017-09-22T11:00:41.520Z,60.5
2017-09-22T11:01:43.393Z,59.0
2017-09-22T11:02:44.781Z,59.2
2017-09-22T11:03:46.461Z,59.8
2017-09-22T11:04:48.059Z,58.9
2017-09-22T11:05:49.741Z,58.7
2017-09-22T11:06:51.270Z,58.1
2017-09-22T11:07:52.915Z,59.1
2017-09-22T11:08:54.825Z,59.4
2017-09-22T11:09:56.421Z,61.1
2017-09-22T11:10:58.062Z,61.6
2017-09-22T11:11:59.654Z,60.9
2017-09-22T11:13:01.256Z,59.4
2017-09-22T11:14:02.834Z,56.9
2017-09-22T11:15:04.482Z,57.5
2017-09-22T11:16:06.125Z,58.1
2017-09-22T11:17:07.778Z,58.7
2017-09-22T11:18:09.467Z,57.7
2017-09-22T11:19:11.314Z,58.9
2017-09-22T11:20:12.969Z,58.9
2017-09-22T11:21:14.480Z,59.3
2017-09-22T11:22:16.161Z,58.0
2017-09-22T11:23:17.886Z,57.6
2017-09-22T11:24:19.561Z,57.6
2017-09-22T11:25:21.163Z,57.7
2017-09-22T11:26:23.612Z,57.1
2017-09-22T11:27:25.222Z,58.0
2017-09-22T11:28:26.927Z,57.2
2017-09-22T11:29:29.036Z,56.6
2017-09-22T11:30:30.662Z,56.8
2017-09-22T11:31:32.424Z,56.2
2017-09-22T11:32:34.347Z,56.2
2017-09-22T11:33:36.027Z,56.2
2017-09-22T11:34:37.542Z,56.3
2017-09-22T11:35:39.672Z,56.7
2017-09-22T11:36:41.411Z,56.3
2017-09-22T11:37:43.052Z,56.6
2017-09-22T11:38:44.765Z,56.0
2017-09-22T11:39:46.396Z,56.7
2017-09-22T11:40:48.147Z,57.1
2017-09-22T11:41:49.867Z,57.0
2017-09-22T11:42:51.511Z,57.0
2017-09-22T11:43:53.243Z,57.7
2017-09-22T11:44:56.059Z,58.9
2017-09-22T11:45:57.652Z,58.3
2017-09-22T11:46:59.479Z,57.7
2017-09-22T11:48:01.338Z,57.7
2017-09-22T11:49:03.050Z,57.8
2017-09-22T11:50:04.781Z,57.8
2017-09-22T11:51:06.387Z,56.5
2017-09-22T11:52:08.001Z,57.0
2017-09-22T11:53:09.718Z,57.4
2017-09-22T11:54:11.360Z,57.7
2017-09-22T11:55:13.062Z,57.9
2017-09-22T11:56:14.646Z,56.7
2017-09-22T11:57:16.193Z,56.9
2017-09-22T11:58:17.859Z,56.9
2017-09-22T11:59:19.508Z,56.5
2017-09-22T12:00:21.867Z,56.2
2017-09-22T12:01:23.498Z,56.5
2017-09-22T12:02:25.074Z,57.8
2017-09-22T12:03:26.742Z,57.5
2017-09-22T12:04:28.289Z,56.7
2017-09-22T12:05:29.989Z,56.8
2017-09-22T12:06:31.950Z,56.1
2017-09-22T12:07:33.757Z,56.1
2017-09-22T12:08:35.356Z,56.2
2017-09-22T12:09:37.473Z,57.0
2017-09-22T12:10:39.062Z,56.9
2017-09-22T12:11:40.827Z,56.8
2017-09-22T12:12:42.525Z,56.7
2017-09-22T12:13:44.220Z,56.7
2017-09-22T12:14:46.219Z,56.3
2017-09-22T12:15:48.813Z,57.3
2017-09-22T12:16:50.813Z,57.1
2017-09-22T12:17:52.972Z,57.6
2017-09-22T12:18:54.520Z,57.5
2017-09-22T12:19:56.150Z,58.2
2017-09-22T12:20:57.912Z,58.0
2017-09-22T12:21:59.505Z,57.8
2017-09-22T12:23:01.110Z,57.0
2017-09-22T12:24:02.916Z,56.9
2017-09-22T12:25:04.475Z,57.5
2017-09-22T12:26:06.327Z,56.8
2017-09-22T12:27:07.911Z,57.2
2017-09-22T12:28:09.512Z,56.7
2017-09-22T12:29:11.470Z,56.4
2017-09-22T12:30:13.043Z,57.4
2017-09-22T12:31:14.915Z,57.6
2017-09-22T12:32:18.087Z,57.7
2017-09-22T12:33:19.672Z,56.7
2017-09-22T12:34:21.362Z,58.3
2017-09-22T12:35:23.035Z,57.7
2017-09-22T12:36:24.759Z,57.6
2017-09-22T12:37:26.307Z,57.0
2017-09-22T12:38:27.828Z,58.2
2017-09-22T12:39:29.515Z,58.7
2017-09-22T12:40:31.185Z,57.5
2017-09-22T12:41:33.103Z,57.8
2017-09-22T12:42:34.768Z,57.9
2017-09-22T12:43:36.579Z,58.1
2017-09-22T12:44:38.203Z,58.8
2017-09-22T12:45:39.785Z,57.7
2017-09-22T12:46:42.415Z,57.4
2017-09-22T12:47:43.952Z,57.0
2017-09-22T12:48:45.574Z,56.6
2017-09-22T12:49:47.105Z,57.3
2017-09-22T12:50:48.859Z,57.2
2017-09-22T12:51:50.429Z,56.9
2017-09-22T12:52:52.043Z,57.8
2017-09-22T12:53:53.635Z,57.8
2017-09-22T12:54:56.341Z,58.6
2017-09-22T12:55:58.031Z,58.1
2017-09-22T12:57:00.600Z,59.4
2017-09-22T12:58:02.261Z,59.9
2017-09-22T12:59:03.896Z,60.4
2017-09-22T13:00:05.499Z,59.9
2017-09-22T13:01:07.093Z,59.4
2017-09-22T13:02:08.755Z,59.0
2017-09-22T13:03:10.345Z,58.2
2017-09-22T13:04:12.029Z,57.8
2017-09-22T13:05:13.684Z,57.2
2017-09-22T13:06:15.268Z,58.1
2017-09-22T13:07:16.793Z,57.8
2017-09-22T13:08:18.535Z,56.9
2017-09-22T13:09:20.230Z,58.0
2017-09-22T13:10:21.908Z,56.9
2017-09-22T13:11:23.476Z,57.5
2017-09-22T13:12:25.029Z,57.1
2017-09-22T13:13:26.572Z,56.4
2017-09-22T13:14:28.268Z,56.6
2017-09-22T13:15:29.843Z,56.3
2017-09-22T13:16:31.414Z,56.5
2017-09-22T13:17:33.083Z,56.7
2017-09-22T13:18:34.753Z,56.7
2017-09-22T13:19:36.304Z,56.5
2017-09-22T13:20:37.944Z,56.4
2017-09-22T13:21:39.474Z,56.1
2017-09-22T13:22:41.098Z,55.4
2017-09-22T13:23:42.671Z,55.7
2017-09-22T13:24:44.396Z,55.7
2017-09-22T13:25:45.920Z,55.7
2017-09-22T13:26:47.589Z,55.4
2017-09-22T13:27:49.414Z,56.3
2017-09-22T13:28:51.173Z,55.3
2017-09-22T13:29:52.949Z,55.2
2017-09-22T13:30:54.520Z,55.7
2017-09-22T13:31:56.267Z,55.7
2017-09-22T13:32:57.834Z,55.4
2017-09-22T13:33:59.419Z,55.3
2017-09-22T13:35:01.093Z,55.9
2017-09-22T13:36:02.659Z,56.9
2017-09-22T13:37:05.239Z,55.9
2017-09-22T13:38:06.932Z,55.8
2017-09-22T13:39:08.612Z,55.6